Time;durP1;ratioP1;P1;durP2;ratioP2;P2;SDS_P1;SDS_P2;PMS_P1;PMS_P2;Temp;Humidity;BMP_temperature;BMP_pressure;BME280_temperature;BME280_humidity;BME280_pressure;Samples;Min_cycle;Max_cycle;Signal;HPM_P1;HPM_P2
2022/09/20 00:01:19;;;;;;;6.67;4.47;;;12.20;99.90;;;;;;5052928;28;20296;-68
2022/09/20 00:03:48;;;;;;;8.30;4.03;;;12.20;99.90;;;;;;5052859;28;20212;-68
2022/09/20 00:06:17;;;;;;;9.07;4.13;;;12.20;99.90;;;;;;5052503;28;20313;-67
2022/09/20 00:08:45;;;;;;;8.23;4.30;;;12.20;99.90;;;;;;5052039;28;20231;-68
2022/09/20 00:11:14;;;;;;;7.20;4.03;;;12.20;99.90;;;;;;5052720;28;20237;-68
2022/09/20 00:13:44;;;;;;;6.27;4.50;;;12.20;99.90;;;;;;5052572;28;20213;-68
2022/09/20 00:16:12;;;;;;;7.83;5.00;;;12.20;99.90;;;;;;5052503;28;20213;-68
2022/09/20 00:18:39;;;;;;;7.20;4.60;;;12.20;99.90;;;;;;5052752;28;20672;-67
2022/09/20 00:21:06;;;;;;;6.63;4.33;;;12.10;99.90;;;;;;5051611;28;20660;-68
2022/09/20 00:23:34;;;;;;;7.67;4.67;;;12.10;99.90;;;;;;5050440;28;20671;-68
2022/09/20 00:26:03;;;;;;;7.40;4.83;;;12.10;99.90;;;;;;5052254;28;20344;-67
2022/09/20 00:28:31;;;;;;;7.97;5.00;;;12.10;99.90;;;;;;5052074;28;20312;-68
2022/09/20 00:30:59;;;;;;;9.17;4.90;;;12.10;99.90;;;;;;5052274;28;20328;-67
2022/09/20 00:35:06;;;;;;;10.97;4.87;;;12.10;99.90;;;;;;5051980;28;20313;-66
2022/09/20 00:36:12;;;;;;;6.57;4.17;;;12.10;99.90;;;;;;5051024;28;20193;-66
2022/09/20 00:38:39;;;;;;;5.57;3.73;;;12.10;99.90;;;;;;5049793;28;20201;-66
2022/09/20 00:41:06;;;;;;;5.50;3.57;;;12.10;99.90;;;;;;5032106;28;20735;-67
2022/09/20 00:43:38;;;;;;;5.20;3.30;;;12.10;99.90;;;;;;5032213;28;20234;-68
2022/09/20 00:46:15;;;;;;;4.00;3.03;;;12.10;99.90;;;;;;5032341;28;20201;-66
2022/09/20 00:48:42;;;;;;;7.33;3.90;;;12.10;99.90;;;;;;5047079;28;20726;-66
2022/09/20 00:51:14;;;;;;;8.20;4.60;;;12.10;99.90;;;;;;5051995;28;20258;-65
2022/09/20 00:53:46;;;;;;;11.07;4.60;;;12.10;99.90;;;;;;5052378;28;20328;-65
2022/09/20 00:56:17;;;;;;;6.80;4.53;;;12.00;99.90;;;;;;5051702;28;20212;-65
2022/09/20 00:58:58;;;;;;;8.23;5.07;;;12.00;99.90;;;;;;5051989;28;20186;-65
2022/09/20 01:01:26;;;;;;;7.00;4.20;;;12.00;99.90;;;;;;5051860;28;20576;-66
2022/09/20 01:03:54;;;;;;;9.20;4.77;;;12.00;99.90;;;;;;5048882;28;20201;-66
2022/09/20 01:06:21;;;;;;;9.40;4.20;;;12.00;99.90;;;;;;5051515;28;20753;-65
2022/09/20 01:08:51;;;;;;;6.70;3.70;;;12.00;99.90;;;;;;5051664;28;20225;-67
2022/09/20 01:11:18;;;;;;;8.67;4.07;;;11.90;99.90;;;;;;5050033;28;20211;-65
2022/09/20 01:13:45;;;;;;;6.60;3.63;;;12.00;99.90;;;;;;5051784;28;20667;-66
2022/09/20 01:16:14;;;;;;;6.13;3.80;;;12.00;99.90;;;;;;5050783;28;20233;-66
2022/09/20 01:18:43;;;;;;;4.13;3.20;;;12.00;99.90;;;;;;5051762;28;20232;-65
2022/09/20 01:21:11;;;;;;;7.13;3.90;;;12.00;99.90;;;;;;5051235;28;20241;-65
2022/09/20 01:23:51;;;;;;;5.57;3.70;;;12.00;99.90;;;;;;5051672;28;20205;-65
2022/09/20 01:26:54;;;;;;;5.50;4.07;;;12.00;99.90;;;;;;5048780;28;20475;-64
2022/09/20 01:29:36;;;;;;;6.93;4.27;;;12.00;99.90;;;;;;5050423;28;20764;-65
2022/09/20 01:32:08;;;;;;;7.80;4.37;;;12.00;99.90;;;;;;5050775;28;20281;-65
2022/09/20 01:34:38;;;;;;;8.17;4.17;;;12.00;99.90;;;;;;5051664;28;20189;-65
2022/09/20 01:37:11;;;;;;;5.83;3.53;;;11.90;99.90;;;;;;5051283;28;20758;-65
2022/09/20 01:39:50;;;;;;;5.90;4.00;;;11.90;99.90;;;;;;5051344;28;20194;-65
2022/09/20 01:42:18;;;;;;;7.10;4.17;;;11.90;99.90;;;;;;5050039;28;20209;-65
2022/09/20 01:44:55;;;;;;;8.00;3.90;;;11.90;99.90;;;;;;5051257;28;20663;-65
2022/09/20 01:47:31;;;;;;;6.57;3.90;;;11.90;99.90;;;;;;5051146;28;20231;-65
2022/09/20 01:50:08;;;;;;;8.50;4.13;;;11.90;99.90;;;;;;5050504;28;20209;-65
2022/09/20 01:53:07;;;;;;;5.43;3.60;;;11.80;99.90;;;;;;5051362;28;20657;-65
2022/09/20 01:56:03;;;;;;;6.27;3.90;;;11.80;99.90;;;;;;5051443;28;20280;-65
2022/09/20 01:59:17;;;;;;;7.43;4.10;;;11.80;99.90;;;;;;5048965;28;20288;-65
2022/09/20 02:02:09;;;;;;;5.50;3.93;;;11.80;99.90;;;;;;4994307;28;20207;-66
2022/09/20 02:05:13;;;;;;;5.73;4.30;;;11.70;99.90;;;;;;5049749;28;20244;-65
2022/09/20 02:08:04;;;;;;;5.20;4.00;;;11.70;99.90;;;;;;5048039;28;20292;-67
2022/09/20 02:10:41;;;;;;;7.83;4.40;;;11.60;99.90;;;;;;5050488;28;20711;-66
2022/09/20 02:13:12;;;;;;;6.57;4.67;;;11.70;99.90;;;;;;5050732;28;20284;-66
2022/09/20 02:16:10;;;;;;;7.20;4.40;;;11.60;99.90;;;;;;5051022;28;20194;-66
2022/09/20 02:18:50;;;;;;;6.20;4.67;;;11.60;99.90;;;;;;5050941;28;20200;-65
2022/09/20 02:21:28;;;;;;;6.10;4.03;;;11.50;99.90;;;;;;5050036;28;20815;-65
2022/09/20 02:24:07;;;;;;;8.23;4.33;;;11.40;99.90;;;;;;5050619;28;20247;-66
2022/09/20 02:26:45;;;;;;;6.40;4.50;;;11.40;99.90;;;;;;5050739;28;20229;-66
2022/09/20 02:29:25;;;;;;;9.10;5.00;;;11.40;99.90;;;;;;5050887;28;20673;-67
2022/09/20 02:32:13;;;;;;;6.70;4.43;;;11.30;99.90;;;;;;5050963;28;20551;-65
2022/09/20 02:35:04;;;;;;;7.87;5.00;;;11.30;99.90;;;;;;5050401;28;20713;-67
2022/09/20 02:37:55;;;;;;;7.83;5.17;;;11.20;99.90;;;;;;5050985;28;20255;-67
2022/09/20 02:40:36;;;;;;;8.47;4.77;;;11.20;99.90;;;;;;5051027;28;20701;-67
2022/09/20 02:43:09;;;;;;;6.70;4.57;;;11.10;99.90;;;;;;5050800;28;20330;-66
2022/09/20 02:45:43;;;;;;;6.37;4.53;;;11.00;99.90;;;;;;5054661;28;20194;-66
2022/09/20 02:48:10;;;;;;;7.47;4.73;;;11.00;99.90;;;;;;5054471;28;20283;-66
2022/09/20 02:50:47;;;;;;;7.00;4.97;;;11.00;99.90;;;;;;5053236;28;20231;-66
2022/09/20 02:53:31;;;;;;;10.13;4.83;;;11.00;99.90;;;;;;5054696;28;20670;-66
2022/09/20 02:56:05;;;;;;;7.23;4.97;;;11.00;99.90;;;;;;5052370;28;20219;-65
2022/09/20 02:58:41;;;;;;;7.47;4.90;;;11.00;99.90;;;;;;5054015;28;20281;-65
2022/09/20 03:01:19;;;;;;;8.30;4.83;;;11.00;99.90;;;;;;5053893;28;20275;-65
2022/09/20 03:03:55;;;;;;;6.83;4.73;;;11.00;99.90;;;;;;5053811;28;20669;-65
2022/09/20 03:06:33;;;;;;;8.77;4.80;;;11.10;99.90;;;;;;5034100;28;20256;-65
2022/09/20 03:09:10;;;;;;;7.83;4.80;;;11.10;99.90;;;;;;5033537;28;20304;-65
2022/09/20 03:11:47;;;;;;;8.33;5.23;;;11.10;99.90;;;;;;5042377;28;20706;-65
2022/09/20 03:14:21;;;;;;;9.77;5.30;;;11.00;99.90;;;;;;5053714;28;20197;-65
2022/09/20 03:17:01;;;;;;;7.10;4.90;;;11.10;99.90;;;;;;5053522;28;20193;-65
2022/09/20 03:19:39;;;;;;;9.93;4.70;;;11.00;99.90;;;;;;5053995;28;20181;-64
2022/09/20 03:22:20;;;;;;;10.20;5.13;;;11.00;99.90;;;;;;5053383;28;20200;-70
2022/09/20 03:25:01;;;;;;;7.83;4.60;;;11.00;99.90;;;;;;5053753;28;20296;-65
2022/09/20 03:27:35;;;;;;;6.87;4.80;;;11.00;99.90;;;;;;5052702;28;20205;-65
2022/09/20 03:30:16;;;;;;;9.33;4.70;;;11.00;99.90;;;;;;5053150;28;20354;-66
2022/09/20 03:32:54;;;;;;;9.80;5.10;;;11.00;99.90;;;;;;5053468;28;20631;-66
2022/09/20 03:35:39;;;;;;;9.30;5.27;;;11.00;99.90;;;;;;5053531;28;20280;-66
2022/09/20 03:38:25;;;;;;;7.63;5.40;;;11.00;99.90;;;;;;5053546;28;20194;-66
2022/09/20 03:41:22;;;;;;;9.27;5.30;;;11.00;99.90;;;;;;5052009;28;20202;-65
2022/09/20 03:44:05;;;;;;;6.57;4.87;;;11.00;99.90;;;;;;5052878;28;20197;-65
2022/09/20 03:46:43;;;;;;;15.90;5.77;;;10.90;99.90;;;;;;5053147;28;20280;-65
2022/09/20 03:49:44;;;;;;;8.20;5.10;;;10.90;99.90;;;;;;5053275;28;20304;-66
2022/09/20 03:52:27;;;;;;;7.87;5.03;;;10.90;99.90;;;;;;5053283;28;20631;-65
2022/09/20 03:55:25;;;;;;;7.10;4.57;;;10.90;99.90;;;;;;5052023;28;20698;-67
2022/09/20 03:58:04;;;;;;;9.53;5.57;;;10.90;99.90;;;;;;5033127;28;20623;-68
2022/09/20 04:00:46;;;;;;;10.87;5.30;;;11.00;99.90;;;;;;5033525;28;20277;-70
2022/09/20 04:03:36;;;;;;;8.37;5.10;;;11.00;99.90;;;;;;5033233;28;20286;-69
2022/09/20 04:06:21;;;;;;;8.63;4.83;;;11.00;99.90;;;;;;5033296;28;20187;-68
2022/09/20 04:09:01;;;;;;;6.53;4.90;;;11.00;99.90;;;;;;5032730;28;20288;-69
2022/09/20 04:11:39;;;;;;;4.43;3.73;;;11.00;99.90;;;;;;5032815;28;20190;-69
2022/09/20 04:14:14;;;;;;;8.07;4.83;;;11.10;99.90;;;;;;5051636;28;20206;-70
2022/09/20 04:16:46;;;;;;;8.27;4.93;;;11.00;99.90;;;;;;5052602;28;20194;-69
2022/09/20 04:19:21;;;;;;;8.80;5.07;;;11.00;99.90;;;;;;5052439;28;20481;-70
2022/09/20 04:21:54;;;;;;;6.67;4.17;;;11.00;99.90;;;;;;5052636;28;20280;-68
2022/09/20 04:24:29;;;;;;;7.53;4.10;;;11.00;99.90;;;;;;5052457;28;20276;-68
2022/09/20 04:27:01;;;;;;;6.67;4.10;;;11.00;99.90;;;;;;5051533;28;20292;-69
2022/09/20 04:29:36;;;;;;;4.90;4.10;;;11.00;99.90;;;;;;5052232;28;20244;-68
2022/09/20 04:32:11;;;;;;;6.37;4.70;;;11.00;99.90;;;;;;5052605;28;20702;-69
2022/09/20 04:37:31;;;;;;;8.43;4.63;;;10.90;99.90;;;;;;5052335;28;20192;-69
2022/09/20 04:40:09;;;;;;;6.60;4.63;;;10.90;99.90;;;;;;5049972;28;20288;-68
2022/09/20 04:43:24;;;;;;;7.90;4.80;;;10.90;99.90;;;;;;5050370;28;20247;-69
2022/09/20 04:46:36;;;;;;;6.90;4.63;;;10.90;99.90;;;;;;5028259;28;20296;-68
2022/09/20 04:49:38;;;;;;;7.33;4.20;;;10.90;99.90;;;;;;5051693;28;20193;-70
2022/09/20 04:52:37;;;;;;;6.07;4.30;;;10.90;99.90;;;;;;5051094;28;20276;-69
2022/09/20 04:55:39;;;;;;;5.57;3.77;;;10.90;99.90;;;;;;5032161;28;20739;-70
2022/09/20 04:58:46;;;;;;;5.80;3.83;;;10.80;99.90;;;;;;5021559;28;20280;-68
2022/09/20 05:02:05;;;;;;;5.97;3.70;;;10.90;99.90;;;;;;5039999;28;20197;-70
2022/09/20 05:05:05;;;;;;;5.20;3.80;;;10.90;99.90;;;;;;5034173;28;20195;-68
2022/09/20 05:08:09;;;;;;;5.17;3.90;;;10.90;99.90;;;;;;5049947;28;20202;-71
2022/09/20 05:11:07;;;;;;;7.00;4.37;;;10.90;99.90;;;;;;5047766;28;20226;-68
2022/09/20 05:13:47;;;;;;;9.23;4.27;;;11.00;99.90;;;;;;5050276;28;20740;-68
2022/09/20 05:16:20;;;;;;;10.00;4.57;;;11.00;99.90;;;;;;5051476;28;20207;-69
2022/09/20 05:19:09;;;;;;;12.00;5.37;;;11.00;99.90;;;;;;5051287;28;20635;-70
2022/09/20 05:21:59;;;;;;;8.20;4.97;;;11.10;99.90;;;;;;5051544;28;20209;-69
2022/09/20 05:24:42;;;;;;;10.30;5.50;;;11.10;99.90;;;;;;5051746;28;20280;-67
2022/09/20 05:27:28;;;;;;;7.33;5.30;;;11.20;99.90;;;;;;5050566;28;20284;-68
2022/09/20 05:30:05;;;;;;;7.93;5.70;;;11.20;99.90;;;;;;5051582;28;20237;-70
2022/09/20 05:32:41;;;;;;;7.77;5.70;;;11.20;99.90;;;;;;5051466;28;20315;-69
2022/09/20 05:35:18;;;;;;;11.67;6.33;;;11.20;99.90;;;;;;5051733;28;20616;-69
2022/09/20 05:37:55;;;;;;;10.10;6.23;;;11.20;99.90;;;;;;5049373;28;20226;-67
2022/09/20 05:40:31;;;;;;;10.30;6.30;;;11.20;99.90;;;;;;5051804;28;20288;-69
2022/09/20 05:43:10;;;;;;;9.73;5.87;;;11.20;99.90;;;;;;5051507;28;20272;-68
2022/09/20 05:46:05;;;;;;;8.77;6.03;;;11.30;99.90;;;;;;5051652;28;20623;-68
2022/09/20 05:48:40;;;;;;;9.10;5.97;;;11.30;99.90;;;;;;5048773;28;20225;-69
2022/09/20 05:51:20;;;;;;;8.40;6.30;;;11.40;99.90;;;;;;5051573;28;20212;-68
2022/09/20 05:54:18;;;;;;;10.47;6.07;;;11.40;99.90;;;;;;5051378;28;20193;-69
2022/09/20 05:56:54;;;;;;;8.93;6.07;;;11.50;99.90;;;;;;5050199;28;20292;-69
2022/09/20 05:59:41;;;;;;;9.10;6.07;;;11.50;99.90;;;;;;5051295;28;20622;-69
2022/09/20 06:02:24;;;;;;;10.00;6.00;;;11.50;99.90;;;;;;5051179;28;20198;-68
2022/09/20 06:05:00;;;;;;;7.67;5.57;;;11.60;99.90;;;;;;5051135;28;20196;-67
2022/09/20 06:07:44;;;;;;;9.03;5.57;;;11.60;99.90;;;;;;5048841;28;20245;-67
2022/09/20 06:10:38;;;;;;;8.40;5.20;;;11.70;99.90;;;;;;5046575;28;20730;-69
2022/09/20 06:13:30;;;;;;;7.80;4.73;;;11.80;99.90;;;;;;5017417;28;20260;-68
2022/09/20 06:16:00;;;;;;;12.03;5.43;;;11.80;99.90;;;;;;5041026;28;20656;-67
2022/09/20 06:18:32;;;;;;;11.67;5.40;;;11.90;99.90;;;;;;5052196;28;20279;-68
2022/09/20 06:21:13;;;;;;;10.17;4.90;;;11.90;99.90;;;;;;5059361;28;20279;-67
2022/09/20 06:23:40;;;;;;;6.77;4.83;;;12.00;99.90;;;;;;5074869;28;20188;-70
2022/09/20 06:26:16;;;;;;;7.17;4.93;;;12.10;99.90;;;;;;5074902;28;20300;-68
2022/09/20 06:28:47;;;;;;;7.97;5.17;;;12.10;99.90;;;;;;5074985;28;20212;-68
2022/09/20 06:31:16;;;;;;;9.73;5.30;;;12.20;99.90;;;;;;5072222;28;20626;-67
2022/09/20 06:33:45;;;;;;;8.30;5.40;;;12.30;99.90;;;;;;5055037;28;20275;-69
2022/09/20 06:41:56;;;;;;;7.17;4.60;;;12.40;99.90;;;;;;5054571;28;20178;-69
2022/09/20 06:44:23;;;;;;;8.60;5.00;;;12.50;99.90;;;;;;5054178;28;20193;-70
2022/09/20 06:46:53;;;;;;;6.57;4.80;;;12.50;99.90;;;;;;5054000;28;20227;-68
2022/09/20 06:49:20;;;;;;;8.17;5.60;;;12.50;99.90;;;;;;5053014;28;20208;-68
2022/09/20 06:51:49;;;;;;;9.33;6.00;;;12.60;99.90;;;;;;5053592;28;20275;-70
2022/09/20 06:54:18;;;;;;;10.20;7.10;;;12.60;99.90;;;;;;5052590;28;20209;-69
2022/09/20 06:56:46;;;;;;;9.47;5.73;;;12.70;99.90;;;;;;5053782;28;20302;-69
2022/09/20 06:59:15;;;;;;;8.93;6.00;;;12.70;99.90;;;;;;5050711;28;20297;-69
2022/09/20 07:01:43;;;;;;;10.60;6.40;;;12.80;99.90;;;;;;5034322;28;20304;-70
2022/09/20 07:04:10;;;;;;;13.93;7.03;;;12.80;99.90;;;;;;5054514;28;20229;-71
2022/09/20 07:06:37;;;;;;;8.00;5.80;;;12.80;99.90;;;;;;5052677;28;20288;-70
2022/09/20 07:09:04;;;;;;;8.80;5.90;;;12.90;99.90;;;;;;5052465;28;20204;-67
2022/09/20 07:11:33;;;;;;;10.70;5.93;;;12.90;99.90;;;;;;5053115;28;20916;-68
2022/09/20 07:14:01;;;;;;;10.17;5.97;;;13.00;99.90;;;;;;5053351;28;20231;-68
2022/09/20 07:16:30;;;;;;;9.60;5.70;;;13.00;99.90;;;;;;5051249;28;20714;-69
2022/09/20 07:18:57;;;;;;;7.63;5.00;;;13.00;99.90;;;;;;5053054;28;20236;-68
2022/09/20 07:21:24;;;;;;;7.77;5.43;;;13.10;99.90;;;;;;5052093;28;20204;-68
2022/09/20 07:23:52;;;;;;;7.97;5.53;;;13.10;99.90;;;;;;5053201;28;20198;-68
2022/09/20 07:26:21;;;;;;;6.67;4.80;;;13.10;99.90;;;;;;5052832;28;20209;-68
2022/09/20 07:28:49;;;;;;;7.97;5.50;;;13.10;99.90;;;;;;5052519;28;20304;-68
2022/09/20 07:31:17;;;;;;;7.77;5.00;;;13.20;99.90;;;;;;5052322;28;20229;-68
2022/09/20 07:33:45;;;;;;;6.50;5.10;;;13.30;99.90;;;;;;5052166;28;20205;-70
2022/09/20 07:36:12;;;;;;;10.70;5.53;;;13.40;99.90;;;;;;5050551;28;20201;-68
2022/09/20 07:38:39;;;;;;;7.43;4.93;;;13.40;99.90;;;;;;5051826;28;20288;-68
2022/09/20 07:41:07;;;;;;;8.57;4.87;;;13.40;99.90;;;;;;5051326;28;20296;-68
2022/09/20 07:43:34;;;;;;;8.23;5.30;;;13.40;99.90;;;;;;5052622;28;20667;-69
2022/09/20 07:46:01;;;;;;;9.77;5.23;;;13.40;99.90;;;;;;5051108;28;20289;-68
2022/09/20 07:48:31;;;;;;;7.00;5.20;;;13.40;99.90;;;;;;5052386;28;20292;-68
2022/09/20 07:51:02;;;;;;;12.07;4.70;;;13.40;99.90;;;;;;5053326;28;20232;-68
2022/09/20 07:53:29;;;;;;;7.93;5.17;;;13.40;99.90;;;;;;5052891;28;20200;-67
2022/09/20 07:55:58;;;;;;;14.43;7.93;;;13.40;99.90;;;;;;5052416;28;20202;-67
2022/09/20 07:58:25;;;;;;;9.00;6.00;;;13.40;99.90;;;;;;5052900;28;21022;-67
2022/09/20 08:00:53;;;;;;;10.70;5.80;;;13.40;99.90;;;;;;5052838;28;20251;-68
2022/09/20 08:03:21;;;;;;;7.10;5.10;;;13.30;99.90;;;;;;5053144;28;20216;-68
2022/09/20 08:05:49;;;;;;;6.37;4.97;;;13.30;99.90;;;;;;5053500;28;20212;-68
2022/09/20 08:08:18;;;;;;;9.80;5.47;;;13.30;99.90;;;;;;5052858;28;20205;-69
2022/09/20 08:10:45;;;;;;;7.37;5.40;;;13.30;99.90;;;;;;5049169;28;20658;-70
2022/09/20 08:13:13;;;;;;;7.67;5.20;;;13.30;99.90;;;;;;5051615;28;20221;-68
2022/09/20 08:15:40;;;;;;;8.00;5.00;;;13.20;99.90;;;;;;5052150;28;20304;-68
2022/09/20 08:18:08;;;;;;;8.00;4.83;;;13.10;99.90;;;;;;5050995;28;20300;-68
2022/09/20 08:20:37;;;;;;;8.83;5.30;;;13.00;99.90;;;;;;5051127;28;20217;-68
2022/09/20 08:23:04;;;;;;;7.03;4.73;;;13.00;99.90;;;;;;5050931;28;20205;-69
2022/09/20 08:25:32;;;;;;;7.17;5.20;;;13.00;99.90;;;;;;5051417;28;20613;-67
2022/09/20 08:27:59;;;;;;;7.90;4.97;;;13.00;99.90;;;;;;5052469;28;20300;-70
2022/09/20 08:30:26;;;;;;;8.80;4.87;;;13.00;99.90;;;;;;5051072;28;20248;-69
2022/09/20 08:32:54;;;;;;;8.37;4.87;;;13.00;99.90;;;;;;5052553;28;20690;-68
2022/09/20 08:35:24;;;;;;;7.33;5.03;;;13.00;99.90;;;;;;5051801;28;20669;-69
2022/09/20 08:37:53;;;;;;;8.43;5.30;;;13.00;99.90;;;;;;5051746;28;20205;-69
2022/09/20 08:40:22;;;;;;;7.63;5.20;;;12.90;99.90;;;;;;5051065;28;20225;-68
2022/09/20 08:42:53;;;;;;;7.20;4.90;;;12.90;99.90;;;;;;5049607;28;20206;-67
2022/09/20 08:45:23;;;;;;;9.60;5.40;;;12.90;99.90;;;;;;5051670;28;20287;-69
2022/09/20 08:47:53;;;;;;;9.13;5.63;;;12.90;99.90;;;;;;5052496;28;20296;-67
2022/09/20 08:50:20;;;;;;;7.77;5.63;;;13.00;99.90;;;;;;5051376;28;20679;-68
2022/09/20 08:52:49;;;;;;;11.40;5.70;;;12.90;99.90;;;;;;5052301;28;20292;-67
2022/09/20 08:55:18;;;;;;;10.37;7.00;;;13.00;99.90;;;;;;5051278;28;20694;-69
2022/09/20 08:57:50;;;;;;;11.07;6.80;;;13.00;99.90;;;;;;5050658;28;20300;-67
2022/09/20 09:00:20;;;;;;;11.23;6.43;;;13.00;99.90;;;;;;5048429;28;20304;-68
2022/09/20 09:02:47;;;;;;;12.33;6.57;;;13.00;99.90;;;;;;5052155;28;20727;-69
2022/09/20 09:05:31;;;;;;;12.17;6.50;;;13.00;99.90;;;;;;5051755;28;20212;-70
2022/09/20 09:07:59;;;;;;;11.27;6.20;;;13.10;99.90;;;;;;5052098;28;20198;-69
2022/09/20 09:10:30;;;;;;;11.50;5.27;;;13.10;99.90;;;;;;5052637;28;20212;-69
2022/09/20 09:12:59;;;;;;;13.73;5.13;;;13.10;99.90;;;;;;5031490;28;20257;-70
2022/09/20 09:15:30;;;;;;;33.20;21.53;;;13.10;99.90;;;;;;5031641;28;20300;-69
2022/09/20 09:17:57;;;;;;;9.53;5.60;;;13.10;99.90;;;;;;5037075;28;20194;-71
2022/09/20 09:20:25;;;;;;;9.27;5.30;;;13.20;99.90;;;;;;5051809;28;20296;-70
2022/09/20 09:23:01;;;;;;;8.83;5.50;;;13.20;99.90;;;;;;5052018;28;20259;-72
2022/09/20 09:25:33;;;;;;;12.87;5.83;;;13.20;99.90;;;;;;5052195;28;20566;-70
2022/09/20 09:28:04;;;;;;;9.67;5.73;;;13.20;99.90;;;;;;5051897;28;20209;-69
2022/09/20 09:30:34;;;;;;;17.10;6.03;;;13.20;99.90;;;;;;5051212;28;20316;-70
2022/09/20 09:33:27;;;;;;;12.30;5.83;;;13.20;99.90;;;;;;5051772;28;20209;-71
2022/09/20 09:35:59;;;;;;;11.37;6.40;;;13.20;99.90;;;;;;5031826;28;20274;-71
2022/09/20 09:38:27;;;;;;;12.30;6.47;;;13.10;99.90;;;;;;5031917;28;20614;-70
2022/09/20 09:40:56;;;;;;;10.67;5.97;;;13.20;99.90;;;;;;5031530;28;20288;-70
2022/09/20 09:43:28;;;;;;;14.47;6.50;;;13.20;99.90;;;;;;5051538;28;20237;-70
2022/09/20 09:45:57;;;;;;;10.67;6.17;;;13.20;99.90;;;;;;5050529;28;20229;-71
2022/09/20 09:48:25;;;;;;;15.43;6.80;;;13.20;99.90;;;;;;5049076;28;20215;-71
2022/09/20 09:51:09;;;;;;;11.93;6.57;;;13.20;99.90;;;;;;5050076;28;20844;-71
2022/09/20 09:53:36;;;;;;;15.67;7.60;;;13.20;99.90;;;;;;5054644;28;20603;-70
2022/09/20 09:56:41;;;;;;;12.20;7.07;;;13.20;99.90;;;;;;5054659;28;20209;-69
2022/09/20 09:59:28;;;;;;;12.57;7.53;;;13.20;99.90;;;;;;5043151;28;20693;-70
2022/09/20 10:02:04;;;;;;;17.03;8.20;;;13.10;99.90;;;;;;5052932;28;20292;-69
2022/09/20 10:04:38;;;;;;;12.80;8.43;;;13.10;99.90;;;;;;5044696;28;20193;-69
2022/09/20 10:07:14;;;;;;;15.83;8.50;;;13.00;99.90;;;;;;5055205;28;20263;-68
2022/09/20 10:10:02;;;;;;;19.87;8.40;;;13.00;99.90;;;;;;5055241;28;20691;-71
2022/09/20 10:12:51;;;;;;;14.93;7.70;;;12.90;99.90;;;;;;5055096;28;20274;-70
2022/09/20 10:15:28;;;;;;;12.67;8.00;;;12.90;99.90;;;;;;5055161;28;20683;-68
2022/09/20 10:18:12;;;;;;;14.13;7.70;;;13.00;99.90;;;;;;5051863;28;20678;-69
2022/09/20 10:20:52;;;;;;;16.33;7.70;;;12.90;99.90;;;;;;5056114;28;20289;-70
2022/09/20 10:23:35;;;;;;;13.27;7.03;;;12.90;99.90;;;;;;5042140;28;20654;-68
2022/09/20 10:26:13;;;;;;;11.63;6.43;;;12.90;99.90;;;;;;5054591;28;20243;-69
2022/09/20 10:28:51;;;;;;;13.00;7.73;;;12.90;99.90;;;;;;5054711;28;20278;-69
2022/09/20 10:31:34;;;;;;;9.90;7.00;;;12.90;99.90;;;;;;5054521;28;20236;-68
2022/09/20 10:34:16;;;;;;;11.67;7.17;;;13.00;99.90;;;;;;5053440;28;20315;-69
2022/09/20 10:36:49;;;;;;;9.37;6.03;;;13.10;99.90;;;;;;5046737;28;20632;-69
2022/09/20 10:39:21;;;;;;;9.47;4.93;;;13.10;99.90;;;;;;5054735;28;20204;-70
2022/09/20 10:44:57;;;;;;;5.50;4.30;;;13.00;99.90;;;;;;5051808;28;20251;-70
2022/09/20 10:47:32;;;;;;;6.70;4.53;;;13.00;99.90;;;;;;5048588;28;20633;-70
2022/09/20 10:50:10;;;;;;;6.70;4.23;;;13.10;99.90;;;;;;5054021;28;20204;-70
2022/09/20 10:52:56;;;;;;;3.23;2.53;;;13.10;99.90;;;;;;5053561;28;20217;-68
2022/09/20 10:55:33;;;;;;;5.57;2.40;;;13.10;99.90;;;;;;5055065;28;20190;-69
2022/09/20 10:58:26;;;;;;;3.50;2.10;;;13.10;99.90;;;;;;5054369;28;20272;-70
2022/09/20 11:01:01;;;;;;;3.57;2.40;;;13.10;99.90;;;;;;5054231;28;20547;-71
2022/09/20 11:03:41;;;;;;;3.80;2.67;;;12.90;99.90;;;;;;5053720;28;20212;-70
2022/09/20 11:06:18;;;;;;;4.23;3.30;;;12.90;99.90;;;;;;5054231;28;20278;-71
2022/09/20 11:08:50;;;;;;;4.23;3.17;;;12.90;99.90;;;;;;5053957;28;20613;-70
2022/09/20 11:11:20;;;;;;;6.60;3.03;;;12.90;99.90;;;;;;5055116;28;20217;-71
2022/09/20 11:13:56;;;;;;;4.50;2.43;;;12.90;99.90;;;;;;5051910;28;20201;-70
2022/09/20 11:16:28;;;;;;;3.97;2.33;;;12.80;99.90;;;;;;5054096;28;20194;-70
2022/09/20 11:19:00;;;;;;;6.00;2.50;;;12.70;99.90;;;;;;5054261;28;20722;-71
2022/09/20 11:21:32;;;;;;;3.63;2.70;;;12.70;99.90;;;;;;5053782;28;20193;-70
2022/09/20 11:24:04;;;;;;;3.93;2.57;;;12.70;99.90;;;;;;5054750;28;20549;-71
2022/09/20 11:26:37;;;;;;;6.20;2.50;;;12.70;99.90;;;;;;5054402;28;20190;-70
2022/09/20 11:29:13;;;;;;;7.33;2.60;;;12.70;99.90;;;;;;5051716;28;20292;-71
2022/09/20 11:31:43;;;;;;;6.17;2.90;;;12.70;99.90;;;;;;5052075;28;20781;-71
2022/09/20 11:34:18;;;;;;;9.80;2.77;;;12.70;99.90;;;;;;5052286;28;20213;-71
2022/09/20 11:36:53;;;;;;;6.93;3.20;;;12.70;99.90;;;;;;5052409;28;20275;-73
2022/09/20 11:39:25;;;;;;;7.77;3.50;;;12.60;99.90;;;;;;5052247;28;20689;-72
2022/09/20 11:41:56;;;;;;;9.87;3.63;;;12.60;99.90;;;;;;5053304;28;20186;-69
2022/09/20 11:44:23;;;;;;;12.80;4.50;;;12.50;99.90;;;;;;5053645;28;20224;-72
2022/09/20 11:46:55;;;;;;;10.63;4.30;;;12.40;99.90;;;;;;5053629;28;20233;-70
2022/09/20 11:49:27;;;;;;;14.90;5.03;;;12.40;99.90;;;;;;5053889;28;20656;-72
2022/09/20 11:52:20;;;;;;;8.53;3.50;;;12.30;99.90;;;;;;5053648;28;20225;-71
2022/09/20 11:55:20;;;;;;;9.00;4.00;;;12.30;99.90;;;;;;5053443;28;20291;-69
2022/09/20 11:58:02;;;;;;;9.27;4.10;;;12.30;99.90;;;;;;5053333;28;20723;-69
2022/09/20 12:00:31;;;;;;;9.50;4.20;;;12.30;99.90;;;;;;5053501;28;20616;-69
2022/09/20 12:02:59;;;;;;;14.63;4.73;;;12.20;99.90;;;;;;5053641;28;20292;-71
2022/09/20 12:05:32;;;;;;;11.73;4.30;;;12.20;99.90;;;;;;5053739;28;20237;-70
2022/09/20 12:08:01;;;;;;;8.83;4.40;;;12.20;99.90;;;;;;5053869;28;20587;-71
2022/09/20 12:10:32;;;;;;;10.60;5.03;;;12.20;99.90;;;;;;5053847;28;20292;-70
2022/09/20 12:13:01;;;;;;;8.73;4.87;;;12.20;99.90;;;;;;5053275;28;20674;-69
2022/09/20 12:15:31;;;;;;;11.10;4.93;;;12.20;99.90;;;;;;5053274;28;20705;-70
2022/09/20 12:18:30;;;;;;;10.50;5.47;;;12.20;99.90;;;;;;5053380;28;20638;-68
2022/09/20 12:21:11;;;;;;;8.37;4.70;;;12.20;99.90;;;;;;5053220;28;20193;-69
2022/09/20 12:24:10;;;;;;;13.63;5.63;;;12.20;99.90;;;;;;5052696;28;20255;-70
2022/09/20 12:26:43;;;;;;;14.40;5.50;;;12.20;99.90;;;;;;5044328;28;20209;-69
2022/09/20 12:29:51;;;;;;;9.33;6.03;;;12.20;99.90;;;;;;5052942;28;20193;-69
2022/09/20 12:32:41;;;;;;;9.93;6.00;;;12.20;99.90;;;;;;5052613;28;20319;-70
2022/09/20 12:35:56;;;;;;;15.70;6.40;;;12.20;99.90;;;;;;5052837;28;20276;-71
2022/09/20 12:38:47;;;;;;;12.30;6.80;;;12.30;99.90;;;;;;5040725;28;20209;-70
2022/09/20 12:41:18;;;;;;;13.37;6.27;;;12.30;99.90;;;;;;5052770;28;20205;-68
2022/09/20 12:43:59;;;;;;;12.17;6.37;;;12.30;99.90;;;;;;5052430;28;20208;-69
2022/09/20 12:46:34;;;;;;;11.00;6.53;;;12.30;99.90;;;;;;5052309;28;20282;-71
2022/09/20 12:55:29;;;;;;;11.13;6.47;;;12.50;99.90;;;;;;5052488;28;20201;-69
2022/09/20 12:58:01;;;;;;;14.63;7.00;;;12.50;99.90;;;;;;5040516;28;20287;-70
2022/09/20 13:00:37;;;;;;;14.20;7.60;;;12.50;99.90;;;;;;5031161;28;20667;-70
2022/09/20 13:03:12;;;;;;;10.67;7.27;;;12.50;99.90;;;;;;5032554;28;20182;-69
2022/09/20 13:05:41;;;;;;;11.40;7.90;;;12.50;99.90;;;;;;5031964;28;20277;-70
2022/09/20 13:08:19;;;;;;;13.50;7.90;;;12.60;99.90;;;;;;5032183;28;20257;-69
2022/09/20 13:10:55;;;;;;;13.00;7.40;;;12.60;99.90;;;;;;5031612;28;20194;-69
2022/09/20 13:13:33;;;;;;;12.70;7.97;;;12.60;99.90;;;;;;5031809;28;20209;-68
2022/09/20 13:16:04;;;;;;;13.80;8.77;;;12.70;99.90;;;;;;5031864;28;20202;-70
2022/09/20 13:18:32;;;;;;;16.53;9.37;;;12.70;99.90;;;;;;5031645;28;20195;-70
2022/09/20 13:21:04;;;;;;;13.97;9.60;;;12.70;99.90;;;;;;5032353;28;20297;-69
2022/09/20 13:23:34;;;;;;;11.40;8.10;;;12.70;99.90;;;;;;5031414;28;20191;-68
2022/09/20 13:26:09;;;;;;;13.90;8.23;;;12.60;99.90;;;;;;5031258;28;20213;-70
2022/09/20 13:28:40;;;;;;;12.93;8.17;;;12.60;99.90;;;;;;5031384;28;20573;-69
2022/09/20 13:31:24;;;;;;;11.80;8.07;;;12.60;99.90;;;;;;5031761;28;20257;-71
2022/09/20 13:33:51;;;;;;;12.87;8.57;;;12.50;99.90;;;;;;5031761;28;20301;-69
2022/09/20 13:36:25;;;;;;;13.43;7.93;;;12.50;99.90;;;;;;5031873;28;20304;-69
2022/09/20 13:38:54;;;;;;;11.93;7.97;;;12.40;99.90;;;;;;5031663;28;20194;-69
2022/09/20 13:41:23;;;;;;;9.80;7.90;;;12.30;99.90;;;;;;5031062;28;20656;-69
2022/09/20 13:43:51;;;;;;;11.83;7.90;;;12.30;99.90;;;;;;5031858;28;20288;-71
2022/09/20 13:46:23;;;;;;;10.43;7.67;;;12.30;99.90;;;;;;5031420;28;20217;-69
2022/09/20 13:48:59;;;;;;;11.90;7.67;;;12.30;99.90;;;;;;5032209;28;20323;-69